Time;durP1;ratioP1;P1;durP2;ratioP2;P2;SDS_P1;SDS_P2;PMS_P1;PMS_P2;Temp;Humidity;BMP_temperature;BMP_pressure;BME280_temperature;BME280_humidity;BME280_pressure;Samples;Min_cycle;Max_cycle;Signal;HPM_P1;HPM_P2
2022/02/17 00:00:53;;;;;;;;;0.00;0.00;;;;;14.97;100.00;100412.34;4982221;28;45652;-89
2022/02/17 00:03:20;;;;;;;;;0.00;0.00;;;;;15.01;100.00;100404.63;4979981;28;45346;-89
2022/02/17 00:05:45;;;;;;;;;0.00;0.00;;;;;14.98;100.00;100425.44;4984272;27;45615;-91
2022/02/17 00:08:11;;;;;;;;;0.00;0.00;;;;;14.98;100.00;100406.31;4977897;28;47644;-90
2022/02/17 00:10:37;;;;;;;;;1.00;0.00;;;;;15.01;100.00;100424.63;4977189;28;45486;-89
2022/02/17 00:13:03;;;;;;;;;0.00;0.00;;;;;15.02;100.00;100405.53;4994112;28;45260;-89
2022/02/17 00:15:31;;;;;;;;;0.00;0.00;;;;;14.99;100.00;100408.97;4995629;27;45434;-89
2022/02/17 00:17:58;;;;;;;;;0.00;0.00;;;;;14.99;100.00;100408.97;4977250;28;47019;-89
2022/02/17 00:20:25;;;;;;;;;0.50;0.00;;;;;14.99;100.00;100439.34;4994825;27;45408;-90
2022/02/17 00:22:50;;;;;;;;;0.00;0.00;;;;;14.96;100.00;100415.81;4980245;28;45419;-88
2022/02/17 00:25:16;;;;;;;;;0.00;0.00;;;;;14.89;100.00;100411.34;5035682;27;45190;-90
2022/02/17 00:27:42;;;;;;;;;0.00;0.00;;;;;14.93;100.00;100442.69;5042016;27;46232;-89
2022/02/17 00:30:09;;;;;;;;;0.00;0.00;;;;;14.88;100.00;100427.81;4978282;27;45723;-90
2022/02/17 00:32:39;;;;;;;;;0.00;0.00;;;;;14.88;100.00;100451.28;5001659;28;45452;-90
2022/02/17 00:35:06;;;;;;;;;1.00;0.00;;;;;14.79;100.00;100454.59;5001146;27;45536;-90
2022/02/17 00:37:33;;;;;;;;;0.00;0.00;;;;;14.67;100.00;100456.06;4978868;28;47276;-90
2022/02/17 00:39:58;;;;;;;;;0.00;0.00;;;;;14.53;100.00;100437.47;5005859;28;45908;-90
2022/02/17 00:42:24;;;;;;;;;0.00;0.00;;;;;14.46;100.00;100464.22;4994626;27;45377;-90
2022/02/17 00:44:52;;;;;;;;;0.00;0.00;;;;;14.49;100.00;100485.16;4979372;28;45428;-89
2022/02/17 00:47:18;;;;;;;;;0.00;0.00;;;;;14.48;100.00;100480.78;4998399;28;45496;-89
2022/02/17 00:49:44;;;;;;;;;0.00;0.00;;;;;14.51;100.00;100493.88;4981608;28;45335;-89
2022/02/17 00:52:10;;;;;;;;;0.00;0.00;;;;;14.55;100.00;100518.28;4982502;28;45357;-90
2022/02/17 00:54:35;;;;;;;;;0.00;0.00;;;;;14.48;100.00;100479.88;5028321;27;45593;-90
2022/02/17 00:57:01;;;;;;;;;0.00;0.00;;;;;14.49;100.00;100469.53;5094953;27;46559;-89
2022/02/17 00:59:28;;;;;;;;;0.00;0.00;;;;;14.55;100.00;100493.09;5007093;28;45404;-88
2022/02/17 01:01:54;;;;;;;;;0.00;0.00;;;;;14.55;100.00;100493.09;4994130;28;45576;-90
2022/02/17 01:04:20;;;;;;;;;0.00;0.00;;;;;14.55;100.00;100492.22;4999617;28;45310;-89
2022/02/17 01:06:46;;;;;;;;;1.00;0.00;;;;;14.63;100.00;100502.84;4994944;28;46171;-89
2022/02/17 01:09:13;;;;;;;;;0.00;0.00;;;;;14.62;100.00;100511.50;4994174;28;45382;-89
2022/02/17 01:11:39;;;;;;;;;0.00;0.00;;;;;14.51;100.00;100521.66;4976564;28;45267;-89
2022/02/17 01:14:06;;;;;;;;;0.00;0.00;;;;;14.57;100.00;100520.91;5089347;27;45192;-89
2022/02/17 01:16:32;;;;;;;;;0.00;0.00;;;;;14.55;100.00;100502.66;5081164;27;47758;-89
2022/02/17 01:18:58;;;;;;;;;0.00;0.00;;;;;14.52;100.00;100497.34;4997876;27;45717;-89
2022/02/17 01:21:23;;;;;;;;;0.00;0.00;;;;;14.53;100.00;100517.34;4995706;28;45237;-90
2022/02/17 01:23:49;;;;;;;;;0.00;0.00;;;;;14.51;100.00;100483.47;4996763;28;45304;-89
2022/02/17 01:26:15;;;;;;;;;1.00;0.00;;;;;14.55;100.00;100489.63;4984683;28;47653;-89
2022/02/17 01:28:41;;;;;;;;;0.00;0.00;;;;;14.65;100.00;100530.69;5003523;27;45326;-90
2022/02/17 01:31:07;;;;;;;;;1.00;1.00;;;;;14.65;100.00;100550.63;4980859;28;45307;-90
2022/02/17 01:33:34;;;;;;;;;0.00;0.00;;;;;14.74;100.00;100526.56;4979981;28;45505;-90
2022/02/17 01:36:06;;;;;;;;;0.00;0.00;;;;;14.72;100.00;100554.28;5033823;27;45547;-89
2022/02/17 01:38:34;;;;;;;;;0.00;0.00;;;;;14.67;100.00;100556.78;5004975;28;45680;-89
2022/02/17 01:41:00;;;;;;;;;1.00;0.00;;;;;14.65;100.00;100579.28;4998506;28;45287;-90
2022/02/17 01:43:25;;;;;;;;;1.25;1.00;;;;;14.59;100.00;100573.94;4989225;27;45300;-89
2022/02/17 01:45:51;;;;;;;;;0.00;0.00;;;;;14.55;100.00;100578.19;4980520;28;45490;-89
2022/02/17 01:48:16;;;;;;;;;1.25;1.00;;;;;14.46;100.00;100544.97;4981008;28;45348;-90
2022/02/17 01:50:42;;;;;;;;;1.00;0.00;;;;;14.50;100.00;100565.06;4980685;28;45192;-90
2022/02/17 01:53:09;;;;;;;;;1.00;0.00;;;;;14.54;100.00;100559.06;4981257;28;45652;-90
2022/02/17 01:55:37;;;;;;;;;3.00;1.00;;;;;14.53;100.00;100569.47;4986749;28;46633;-89
2022/02/17 01:58:02;;;;;;;;;2.00;1.00;;;;;14.54;100.00;100561.66;4979997;28;45379;-89
2022/02/17 02:00:28;;;;;;;;;2.25;0.00;;;;;14.53;100.00;100570.31;4978455;28;45433;-90
2022/02/17 02:02:54;;;;;;;;;2.25;1.00;;;;;14.52;100.00;100589.41;4996049;27;45323;-89
2022/02/17 02:05:20;;;;;;;;;1.25;1.25;;;;;14.47;100.00;100590.16;4979296;28;47165;-89
2022/02/17 02:07:45;;;;;;;;;0.25;0.00;;;;;14.42;100.00;100604.78;4996658;28;45346;-89
2022/02/17 02:10:11;;;;;;;;;1.00;1.00;;;;;14.33;100.00;100579.38;4995663;27;45259;-88
2022/02/17 02:12:37;;;;;;;;;3.75;1.50;;;;;14.35;100.00;100572.47;4994658;27;45474;-89
2022/02/17 02:15:04;;;;;;;;;1.25;1.00;;;;;14.37;100.00;100612.47;4995592;28;47538;-88
2022/02/17 02:17:30;;;;;;;;;4.75;1.00;;;;;14.34;100.00;100615.88;5009921;27;45422;-89
2022/02/17 02:19:59;;;;;;;;;2.25;1.00;;;;;14.29;100.00;100593.16;4980408;28;45444;-89
2022/02/17 02:22:31;;;;;;;;;0.50;0.50;;;;;14.29;100.00;100611.41;4983748;28;45376;-89
2022/02/17 02:25:00;;;;;;;;;3.25;2.00;;;;;14.28;100.00;100625.25;4975277;28;46826;-89
2022/02/17 02:27:28;;;;;;;;;3.50;3.00;;;;;14.32;100.00;100622.78;4994108;27;45456;-89
2022/02/17 02:29:54;;;;;;;;;1.50;0.00;;;;;14.27;100.00;100589.63;5010163;27;45288;-89
2022/02/17 02:32:20;;;;;;;;;1.75;1.00;;;;;14.29;100.00;100603.59;4986763;27;45473;-89
2022/02/17 02:34:46;;;;;;;;;4.25;1.00;;;;;14.26;100.00;100612.19;5020069;27;46882;-89
2022/02/17 02:37:11;;;;;;;;;2.00;1.00;;;;;14.28;100.00;100609.63;5077671;27;45422;-89
2022/02/17 02:39:37;;;;;;;;;2.75;1.00;;;;;14.28;100.00;100622.66;4996125;27;45390;-88
2022/02/17 02:42:05;;;;;;;;;1.00;1.00;;;;;14.29;100.00;100609.66;4994700;28;45636;-88
2022/02/17 02:44:31;;;;;;;;;4.75;2.00;;;;;14.22;100.00;100616.44;4988212;27;47688;-89
2022/02/17 02:46:56;;;;;;;;;6.25;2.25;;;;;14.26;100.00;100617.38;5098896;27;45247;-89
2022/02/17 02:49:22;;;;;;;;;8.00;3.25;;;;;14.21;100.00;100611.19;5006605;27;45415;-88
2022/02/17 02:51:48;;;;;;;;;4.75;0.00;;;;;14.24;100.00;100646.00;4999283;28;45486;-88
2022/02/17 02:54:14;;;;;;;;;2.25;1.00;;;;;14.19;100.00;100641.50;4976956;28;47840;-89
2022/02/17 02:56:39;;;;;;;;;2.00;1.75;;;;;14.23;100.00;100623.41;5011796;27;45475;-89
2022/02/17 02:59:05;;;;;;;;;1.25;1.00;;;;;14.23;100.00;100610.38;4995819;28;44770;-89
2022/02/17 03:01:31;;;;;;;;;3.50;2.00;;;;;14.24;100.00;100613.88;4995387;28;45439;-89
2022/02/17 03:03:59;;;;;;;;;4.00;2.00;;;;;14.17;100.00;100637.97;4995142;27;45360;-89
2022/02/17 03:06:29;;;;;;;;;4.00;2.25;;;;;14.19;100.00;100628.50;4978142;28;45408;-89
2022/02/17 03:08:56;;;;;;;;;4.25;3.25;;;;;14.20;100.00;100658.91;4990761;28;45530;-89
2022/02/17 03:11:22;;;;;;;;;6.50;3.00;;;;;14.17;100.00;100644.06;5010476;27;45358;-89
2022/02/17 03:13:47;;;;;;;;;1.50;0.75;;;;;14.16;100.00;100649.22;5018723;27;46526;-89
2022/02/17 03:16:13;;;;;;;;;8.25;2.00;;;;;14.11;100.00;100611.78;4976015;28;45338;-89
2022/02/17 03:18:39;;;;;;;;;4.75;3.00;;;;;14.21;100.00;100640.69;4971712;28;45536;-89
2022/02/17 03:21:05;;;;;;;;;4.67;1.00;;;;;14.16;100.00;100636.22;4932363;28;1405488;-89
2022/02/17 03:23:32;;;;;;;;;3.00;2.00;;;;;14.15;100.00;100647.47;5001394;28;46442;-88
2022/02/17 03:25:58;;;;;;;;;4.25;3.25;;;;;14.16;100.00;100625.78;4982151;28;45769;-89
2022/02/17 03:28:23;;;;;;;;;4.00;3.00;;;;;14.12;100.00;100658.69;4978725;28;45308;-89
2022/02/17 03:30:49;;;;;;;;;10.50;5.00;;;;;14.03;100.00;100624.59;4976137;28;45609;-89
2022/02/17 03:33:15;;;;;;;;;2.75;2.00;;;;;13.96;100.00;100641.75;4959080;28;47529;-90
2022/02/17 03:35:40;;;;;;;;;2.00;2.00;;;;;13.93;100.00;100654.66;4960547;28;45453;-89
2022/02/17 03:38:06;;;;;;;;;5.50;3.25;;;;;13.90;94.76;100658.06;5085117;27;45374;-88
2022/02/17 03:40:32;;;;;;;;;4.75;2.75;;;;;13.81;90.92;100664.75;5003739;27;45327;-88
2022/02/17 03:42:57;;;;;;;;;5.25;1.75;;;;;13.85;92.83;100666.59;4995796;28;45590;-89
2022/02/17 03:45:23;;;;;;;;;2.50;2.00;;;;;13.71;92.35;100656.69;5001730;28;45257;-88
2022/02/17 03:47:49;;;;;;;;;6.00;2.50;;;;;13.68;91.15;100687.81;4978315;28;45416;-89
2022/02/17 03:50:14;;;;;;;;;9.00;3.50;;;;;13.62;92.48;100662.47;4997038;28;45234;-89
2022/02/17 03:52:41;;;;;;;;;4.50;2.00;;;;;13.62;95.62;100654.69;4978836;28;47760;-89
2022/02/17 03:55:08;;;;;;;;;10.75;4.00;;;;;13.58;95.36;100671.03;4977180;28;45694;-88
2022/02/17 03:57:34;;;;;;;;;6.00;5.00;;;;;13.56;97.20;100677.03;4977865;28;45566;-88
2022/02/17 04:00:00;;;;;;;;;6.00;1.25;;;;;13.55;97.90;100699.53;4995352;28;45445;-89
2022/02/17 04:02:26;;;;;;;;;8.75;4.50;;;;;13.52;99.17;100696.84;4996697;28;45468;-89
2022/02/17 04:04:52;;;;;;;;;5.25;3.50;;;;;13.54;100.00;100697.78;4997171;27;45338;-88
2022/02/17 04:07:17;;;;;;;;;6.50;4.25;;;;;13.51;100.00;100702.88;4992879;27;45253;-88
2022/02/17 04:09:43;;;;;;;;;6.50;4.25;;;;;13.59;100.00;100719.59;4992901;28;45388;-89
2022/02/17 04:12:09;;;;;;;;;5.75;3.75;;;;;13.59;100.00;100706.59;5006347;28;46754;-89
2022/02/17 04:14:35;;;;;;;;;5.75;2.00;;;;;13.59;100.00;100726.53;5001633;27;45299;-89
2022/02/17 04:17:01;;;;;;;;;4.25;4.00;;;;;13.57;100.00;100730.81;4978505;28;45320;-89
2022/02/17 04:19:27;;;;;;;;;6.75;3.50;;;;;13.49;100.00;100722.75;5014388;27;45652;-89
2022/02/17 04:21:53;;;;;;;;;7.75;4.25;;;;;13.57;100.00;100723.88;4992895;27;46834;-89
2022/02/17 04:24:19;;;;;;;;;9.50;6.25;;;;;13.60;100.00;100720.50;4977182;28;45404;-89
2022/02/17 04:26:45;;;;;;;;;5.25;4.50;;;;;13.61;100.00;100751.75;4978617;28;45436;-88
2022/02/17 04:29:10;;;;;;;;;6.00;5.25;;;;;13.54;98.78;100762.81;4996147;27;45801;-88
2022/02/17 04:31:36;;;;;;;;;6.25;4.25;;;;;13.56;94.40;100765.47;4994663;28;45284;-88
2022/02/17 04:34:02;;;;;;;;;10.75;5.00;;;;;13.52;93.07;100766.19;4980565;28;45460;-89
2022/02/17 04:36:28;;;;;;;;;7.50;7.00;;;;;13.45;94.72;100749.50;4977842;28;45771;-89
2022/02/17 04:38:53;;;;;;;;;8.75;5.50;;;;;13.43;91.98;100774.59;4978997;28;45390;-89
2022/02/17 04:44:04;;;;;;;;;10.00;4.00;;;;;13.42;90.13;100798.84;4995574;28;45434;-89
2022/02/17 04:46:29;;;;;;;;;8.50;4.75;;;;;13.36;91.42;100799.47;4994818;27;45327;-89
2022/02/17 04:48:55;;;;;;;;;6.50;4.75;;;;;13.36;89.27;100824.59;4983839;28;45261;-88
2022/02/17 04:51:21;;;;;;;;;9.50;5.00;;;;;13.26;88.21;100810.41;4994524;28;45371;-89
2022/02/17 04:53:46;;;;;;;;;4.50;3.25;;;;;13.27;87.76;100839.03;4972967;28;45287;-89
2022/02/17 04:56:12;;;;;;;;;9.00;5.50;;;;;13.21;88.39;100836.25;4957904;28;45372;-89
2022/02/17 04:58:38;;;;;;;;;9.00;5.50;;;;;13.19;88.63;100832.72;4992122;27;45280;-88
2022/02/17 05:01:03;;;;;;;;;9.75;4.75;;;;;13.20;89.47;100828.38;4994767;28;45853;-89
2022/02/17 05:03:29;;;;;;;;;8.25;5.00;;;;;13.18;89.20;100835.22;4994891;28;45444;-89
2022/02/17 05:05:56;;;;;;;;;8.00;4.00;;;;;13.14;86.00;100852.44;5091584;27;45421;-88
2022/02/17 05:08:22;;;;;;;;;8.75;6.00;;;;;13.13;87.69;100856.78;5026814;28;45299;-88
2022/02/17 05:10:48;;;;;;;;;5.25;4.00;;;;;13.11;88.43;100840.25;4980049;28;47783;-89
2022/02/17 05:13:15;;;;;;;;;8.75;4.50;;;;;13.12;89.05;100833.34;4993578;28;45515;-88
2022/02/17 05:15:41;;;;;;;;;5.75;3.00;;;;;13.11;86.25;100842.84;4994449;28;45303;-88
2022/02/17 05:18:07;;;;;;;;;8.25;7.75;;;;;13.18;85.56;100853.44;4995133;27;45236;-89
2022/02/17 05:20:32;;;;;;;;;10.00;7.00;;;;;13.20;84.78;100865.69;4976876;27;47848;-89
2022/02/17 05:22:58;;;;;;;;;6.00;5.00;;;;;13.14;84.91;100870.66;5014071;27;45676;-89
2022/02/17 05:25:24;;;;;;;;;6.75;5.25;;;;;13.12;87.14;100877.53;4975402;28;45346;-88
2022/02/17 05:27:50;;;;;;;;;9.75;8.00;;;;;13.15;85.70;100877.63;4977053;28;45457;-88
2022/02/17 05:30:16;;;;;;;;;8.25;5.25;;;;;13.18;86.51;100889.81;4976055;28;47733;-89
2022/02/17 05:32:42;;;;;;;;;14.00;8.00;;;;;13.21;87.73;100892.53;4976666;28;45577;-88
2022/02/17 05:35:09;;;;;;;;;8.25;5.00;;;;;13.26;84.32;100896.22;4994819;28;45497;-88
2022/02/17 05:37:36;;;;;;;;;7.25;4.00;;;;;13.28;83.82;100915.34;4976779;28;45371;-89
2022/02/17 05:40:04;;;;;;;;;6.50;5.25;;;;;13.25;83.10;100910.91;4996870;28;46503;-88
2022/02/17 05:42:29;;;;;;;;;9.50;4.25;;;;;13.19;83.76;100895.09;4993868;27;45234;-89
2022/02/17 05:44:55;;;;;;;;;6.50;4.25;;;;;13.26;82.33;100912.69;4994855;28;45385;-88
2022/02/17 05:47:21;;;;;;;;;7.75;6.00;;;;;13.24;81.62;100903.06;4976322;28;45424;-88
2022/02/17 05:49:46;;;;;;;;;8.75;6.50;;;;;13.23;82.99;100899.56;4994221;28;45985;-88
2022/02/17 05:52:12;;;;;;;;;10.25;6.00;;;;;13.25;83.52;100903.09;4978187;28;45445;-88
2022/02/17 05:54:37;;;;;;;;;6.75;5.75;;;;;13.22;82.46;100905.63;5022506;27;45339;-88
2022/02/17 05:57:03;;;;;;;;;5.50;3.75;;;;;13.21;80.93;100902.94;5100262;27;45366;-89
2022/02/17 05:59:29;;;;;;;;;7.50;4.75;;;;;13.23;83.01;100911.69;5101502;27;45479;-88
2022/02/17 06:01:55;;;;;;;;;7.75;6.00;;;;;13.08;83.31;100894.72;5090294;27;45738;-88
2022/02/17 06:04:20;;;;;;;;;12.75;5.25;;;;;13.10;83.61;100910.38;5080375;27;45278;-89
2022/02/17 06:06:46;;;;;;;;;9.50;6.00;;;;;13.10;84.61;100925.97;5077413;27;45486;-87
2022/02/17 06:09:12;;;;;;;;;6.25;5.75;;;;;13.05;83.60;100914.50;4993435;27;45394;-88
2022/02/17 06:11:37;;;;;;;;;9.75;6.75;;;;;13.03;85.94;100931.75;4995944;28;45730;-88
2022/02/17 06:14:03;;;;;;;;;8.00;7.25;;;;;13.05;85.36;100946.59;5004603;27;45710;-88
2022/02/17 06:16:29;;;;;;;;;9.50;4.50;;;;;13.04;87.59;100947.44;4996953;27;45545;-88
2022/02/17 06:18:54;;;;;;;;;7.00;5.50;;;;;13.04;88.76;100931.84;4997461;28;45541;-87
2022/02/17 06:21:20;;;;;;;;;10.50;5.00;;;;;13.05;88.86;100928.41;5000177;27;45466;-88
2022/02/17 06:23:46;;;;;;;;;11.00;7.25;;;;;13.09;89.64;100939.81;4998385;28;45410;-88
2022/02/17 06:26:11;;;;;;;;;12.25;5.75;;;;;13.05;89.15;100957.00;4978461;28;45993;-89
2022/02/17 06:28:37;;;;;;;;;9.50;6.50;;;;;13.05;90.58;100944.00;4997733;27;45429;-88
2022/02/17 06:31:03;;;;;;;;;10.25;8.75;;;;;13.02;90.83;100962.06;4981953;28;45461;-88
2022/02/17 06:33:30;;;;;;;;;8.75;7.50;;;;;12.99;92.04;100973.25;4997744;27;45475;-88
2022/02/17 06:35:56;;;;;;;;;9.00;7.50;;;;;12.93;92.94;100956.53;4978219;28;45617;-89
2022/02/17 06:38:21;;;;;;;;;9.00;6.50;;;;;12.91;91.97;100972.06;4976685;28;47449;-88
2022/02/17 06:40:47;;;;;;;;;7.75;5.75;;;;;12.88;92.71;100989.25;4976976;28;45514;-88
2022/02/17 06:43:15;;;;;;;;;9.25;8.00;;;;;12.82;93.59;100989.91;4976699;28;45412;-87
2022/02/17 06:45:42;;;;;;;;;10.75;6.75;;;;;12.82;94.67;100977.81;4996267;27;45826;-87
2022/02/17 06:48:08;;;;;;;;;12.25;6.50;;;;;12.78;94.88;100982.84;4982913;28;48017;-87
2022/02/17 06:50:35;;;;;;;;;11.75;9.50;;;;;12.77;93.24;101020.03;4986497;27;45498;-88
2022/02/17 06:53:00;;;;;;;;;18.50;12.25;;;;;12.74;94.08;100996.50;5060159;27;45232;-87
2022/02/17 06:55:26;;;;;;;;;14.00;9.25;;;;;12.74;95.37;101002.59;4997558;27;45592;-86
2022/02/17 06:57:52;;;;;;;;;13.00;9.75;;;;;12.77;95.76;101005.31;4997757;27;45685;-86
2022/02/17 07:00:18;;;;;;;;;12.50;7.25;;;;;12.78;94.36;101001.88;5005811;28;45403;-83
2022/02/17 07:02:56;;;;;;;;;11.50;8.00;;;;;12.75;94.32;101006.97;4998009;27;45267;-84
2022/02/17 07:05:23;;;;;;;;;8.25;5.00;;;;;12.72;94.79;101018.94;4996631;27;45650;-86
2022/02/17 07:07:49;;;;;;;;;11.75;8.00;;;;;12.68;95.59;101044.81;4994790;27;45425;-82
2022/02/17 07:10:54;;;;;;;;;9.50;6.25;;;;;12.68;95.36;101015.34;5076324;27;45757;-84
2022/02/17 07:13:03;;;;;;;;;21.25;10.00;;;;;12.67;95.88;101036.94;4993889;28;45413;-86
2022/02/17 07:15:30;;;;;;;;;14.00;9.50;;;;;12.67;94.48;101050.84;4999023;28;45259;-86
2022/02/17 07:17:56;;;;;;;;;13.75;9.25;;;;;12.62;95.96;101028.97;5000411;27;45931;-83
2022/02/17 07:20:22;;;;;;;;;14.75;8.75;;;;;12.62;94.53;101036.78;5002260;28;45304;-85
2022/02/17 07:22:48;;;;;;;;;17.00;8.75;;;;;12.55;95.00;101039.97;4998331;28;45442;-86
2022/02/17 07:25:14;;;;;;;;;12.25;10.50;;;;;12.59;95.78;101043.56;5008051;27;45605;-93
2022/02/17 07:27:39;;;;;;;;;18.25;8.25;;;;;12.59;95.31;101052.22;5011564;28;45305;-94
2022/02/17 07:30:06;;;;;;;;;14.25;7.00;;;;;12.59;93.67;101087.72;5009365;27;45333;-91
2022/02/17 07:32:31;;;;;;;;;14.25;8.75;;;;;12.54;95.17;101059.81;4991441;28;44634;-94
2022/02/17 07:34:58;;;;;;;;;10.50;7.75;;;;;12.59;96.26;101067.81;5000253;28;45352;-79
2022/02/17 07:37:25;;;;;;;;;18.50;10.50;;;;;12.63;94.93;101066.25;5006383;27;46292;-93
2022/02/17 07:39:50;;;;;;;;;20.50;11.00;;;;;12.64;94.59;101079.28;5008170;27;45699;-83
2022/02/17 07:42:16;;;;;;;;;10.50;6.50;;;;;12.63;95.10;101080.09;4996741;28;45409;-87
2022/02/17 07:44:42;;;;;;;;;15.50;10.00;;;;;12.66;94.08;101080.25;4998822;28;45304;-92
2022/02/17 07:47:08;;;;;;;;;15.25;8.25;;;;;12.73;94.66;101093.47;4995659;28;46404;-86
2022/02/17 07:49:33;;;;;;;;;12.25;6.50;;;;;12.74;93.95;101097.84;4994583;28;45420;-86
2022/02/17 07:51:59;;;;;;;;;12.50;6.25;;;;;12.73;92.44;101104.75;5090774;27;45430;-87
2022/02/17 07:54:25;;;;;;;;;17.00;8.75;;;;;12.68;92.88;101101.97;5002413;27;45319;-86
2022/02/17 07:56:51;;;;;;;;;12.50;8.50;;;;;12.65;93.94;101085.34;4995698;28;45398;-85
2022/02/17 07:59:17;;;;;;;;;19.00;8.00;;;;;12.64;95.05;101084.47;4995394;28;45264;-87
2022/02/17 08:01:43;;;;;;;;;14.25;11.25;;;;;12.69;94.99;101095.94;4995691;27;45430;-87
2022/02/17 08:04:08;;;;;;;;;9.50;8.00;;;;;12.74;93.20;101095.25;5076740;27;45487;-86
2022/02/17 08:06:34;;;;;;;;;16.25;8.00;;;;;12.75;94.25;101125.59;4994822;28;45797;-86
2022/02/17 08:09:00;;;;;;;;;15.00;10.00;;;;;12.82;93.61;101101.63;4993705;28;45472;-87
2022/02/17 08:11:26;;;;;;;;;9.75;8.00;;;;;12.85;94.04;101101.75;5011718;27;45386;-91
2022/02/17 08:13:53;;;;;;;;;11.25;7.25;;;;;12.87;94.20;101101.81;5000972;27;45687;-89
2022/02/17 08:16:19;;;;;;;;;15.00;9.50;;;;;12.89;94.54;101106.25;5051259;27;45430;-86
2022/02/17 08:18:45;;;;;;;;;16.25;10.25;;;;;12.84;94.77;101107.78;4981570;28;45490;-91
2022/02/17 08:21:10;;;;;;;;;15.00;9.75;;;;;12.83;95.64;101116.38;5003611;28;45283;-95
2022/02/17 08:23:36;;;;;;;;;13.00;8.50;;;;;12.84;96.30;101138.97;5008003;28;45293;-95
2022/02/17 08:26:03;;;;;;;;;20.75;9.75;;;;;12.86;96.52;101139.91;4987305;28;47244;-92
2022/02/17 08:28:28;;;;;;;;;19.25;9.75;;;;;12.88;96.59;101159.06;5002051;28;45118;-89
2022/02/17 08:30:54;;;;;;;;;11.25;5.75;;;;;12.96;96.41;101148.94;5005043;28;45280;-93
2022/02/17 08:33:20;;;;;;;;;11.75;7.75;;;;;12.92;95.52;101157.47;5003788;28;45327;-95
2022/02/17 08:35:46;;;;;;;;;17.00;8.25;;;;;12.95;96.56;101140.28;5004631;28;47651;-95
2022/02/17 08:38:14;;;;;;;;;9.00;7.75;;;;;12.92;96.53;101160.06;4982182;28;45336;-92
2022/02/17 08:40:39;;;;;;;;;12.75;9.75;;;;;12.87;97.97;101154.69;4999788;27;45351;-94
2022/02/17 08:43:13;;;;;;;;;13.50;7.50;;;;;12.88;97.97;101168.53;5005842;27;45464;-94
2022/02/17 08:45:42;;;;;;;;;8.75;4.00;;;;;12.88;97.93;101173.75;5003440;28;47260;-95
2022/02/17 08:48:08;;;;;;;;;18.00;9.50;;;;;12.90;98.79;101173.00;5002862;28;45718;-89
2022/02/17 08:50:35;;;;;;;;;12.00;10.75;;;;;12.97;98.51;101174.13;5008124;28;45155;-94
2022/02/17 08:53:01;;;;;;;;;11.75;7.75;;;;;13.01;98.47;101169.09;4984274;28;45322;-86
2022/02/17 08:55:27;;;;;;;;;13.25;9.25;;;;;13.07;98.44;101167.59;4996954;28;45385;-85
2022/02/17 08:57:54;;;;;;;;;17.25;9.50;;;;;13.09;97.60;101159.03;4996520;28;45898;-88
2022/02/17 09:00:20;;;;;;;;;13.75;8.25;;;;;13.12;96.30;101163.47;4994204;28;45437;-90
2022/02/17 09:02:46;;;;;;;;;14.25;8.50;;;;;13.13;96.30;101160.03;4997132;28;45257;-85
2022/02/17 09:05:12;;;;;;;;;14.75;8.50;;;;;13.07;96.20;101155.47;4996316;28;45239;-88
2022/02/17 09:07:38;;;;;;;;;11.50;8.25;;;;;13.12;96.42;101161.75;4996232;28;45233;-85
2022/02/17 09:10:05;;;;;;;;;11.75;9.00;;;;;13.13;98.31;101171.34;4979065;28;45335;-89
2022/02/17 09:12:32;;;;;;;;;12.75;7.75;;;;;13.16;97.22;101192.25;4999907;28;45476;-87
2022/02/17 09:14:58;;;;;;;;;18.00;10.00;;;;;13.10;95.15;101167.72;5006485;27;45343;-88
2022/02/17 09:17:23;;;;;;;;;14.00;7.75;;;;;13.09;96.18;101165.94;5000984;28;45600;-91
2022/02/17 09:19:49;;;;;;;;;11.75;9.00;;;;;13.12;97.23;101192.94;4999085;28;45427;-91
2022/02/17 09:22:15;;;;;;;;;13.00;7.75;;;;;13.13;97.48;101193.81;4998675;28;45187;-88
2022/02/17 09:24:40;;;;;;;;;9.25;6.75;;;;;13.14;96.27;101206.00;4983015;28;46871;-94
2022/02/17 09:27:06;;;;;;;;;16.75;11.50;;;;;13.17;95.16;101185.34;4996998;28;45252;-94
2022/02/17 09:29:32;;;;;;;;;11.25;8.50;;;;;13.14;96.32;101198.19;4997626;28;45209;-93
2022/02/17 09:31:57;;;;;;;;;17.25;9.75;;;;;13.09;95.27;101203.22;4997293;28;45249;-93
2022/02/17 09:34:26;;;;;;;;;18.00;9.75;;;;;13.03;94.32;101228.97;4999295;28;47768;-92
2022/02/17 09:36:53;;;;;;;;;14.00;8.50;;;;;12.92;96.30;101215.50;5004360;28;45267;-94
2022/02/17 09:39:21;;;;;;;;;11.75;7.75;;;;;12.95;96.52;101226.06;5000353;28;45251;-90
2022/02/17 09:41:47;;;;;;;;;16.50;9.25;;;;;12.99;97.39;101222.75;4998937;28;45251;-92
2022/02/17 09:44:13;;;;;;;;;9.25;8.25;;;;;13.03;95.70;101223.78;4989130;28;47154;-91
2022/02/17 09:46:44;;;;;;;;;8.00;6.50;;;;;13.04;95.34;101235.03;5006279;28;45329;-90
2022/02/17 09:49:18;;;;;;;;;11.00;9.75;;;;;13.09;94.80;101246.53;4992158;28;44769;-88
2022/02/17 09:51:45;;;;;;;;;12.00;8.75;;;;;13.12;94.92;101257.94;5007270;28;44723;-92
2022/02/17 09:54:11;;;;;;;;;11.25;8.75;;;;;13.15;94.87;101252.88;5010426;28;45588;-89
2022/02/17 09:56:38;;;;;;;;;10.00;5.75;;;;;13.15;95.16;101250.28;5006546;28;44694;-90
2022/02/17 09:59:04;;;;;;;;;12.00;7.50;;;;;13.19;94.90;101250.38;4981120;28;45364;-87
2022/02/17 10:01:30;;;;;;;;;13.50;8.00;;;;;13.25;96.48;101243.72;5003209;27;45410;-87
2022/02/17 10:04:23;;;;;;;;;12.00;7.75;;;;;13.35;93.37;101245.00;4997557;28;45415;-84
2022/02/17 10:06:51;;;;;;;;;10.00;6.00;;;;;13.32;92.95;101250.97;5041038;27;45465;-88
2022/02/17 10:09:20;;;;;;;;;15.25;9.25;;;;;13.33;93.60;101262.25;4998131;27;45405;-86
2022/02/17 10:11:48;;;;;;;;;10.75;8.25;;;;;13.41;93.65;101255.66;4979730;28;45298;-86
2022/02/17 10:14:16;;;;;;;;;12.50;7.75;;;;;13.51;93.40;101251.75;5000810;27;45268;-85
2022/02/17 10:17:11;;;;;;;;;12.25;6.25;;;;;13.52;90.81;101261.31;5000560;28;45321;-90
2022/02/17 10:19:41;;;;;;;;;10.25;7.75;;;;;13.48;92.75;101277.63;5002667;28;45299;-82
2022/02/17 10:22:11;;;;;;;;;11.00;9.00;;;;;13.50;91.55;101260.38;4981564;28;45545;-88
2022/02/17 10:24:46;;;;;;;;;12.75;5.75;;;;;13.51;93.46;101280.34;4998809;28;45405;-86
2022/02/17 10:27:17;;;;;;;;;8.75;5.75;;;;;13.57;91.98;101270.19;5001081;28;45481;-90
2022/02/17 10:30:07;;;;;;;;;15.00;9.00;;;;;13.54;91.85;101277.88;5008814;28;44682;-89
2022/02/17 10:32:34;;;;;;;;;13.75;6.00;;;;;13.52;90.52;101296.84;4986868;28;45376;-86
2022/02/17 10:35:14;;;;;;;;;10.25;8.00;;;;;13.51;92.77;101275.16;4999903;28;45428;-87
2022/02/17 10:37:51;;;;;;;;;16.75;8.75;;;;;13.59;91.41;101278.06;4979599;28;45276;-87
2022/02/17 10:40:27;;;;;;;;;14.50;8.00;;;;;13.66;91.69;101276.59;4991448;28;45393;-90
2022/02/17 10:43:13;;;;;;;;;9.75;6.25;;;;;13.70;89.28;101294.09;4998031;28;45450;-91
2022/02/17 10:45:46;;;;;;;;;11.75;7.75;;;;;13.70;88.74;101283.69;4995520;28;46280;-86
2022/02/17 10:48:22;;;;;;;;;10.25;6.75;;;;;13.70;88.45;101288.88;4995217;28;45390;-87
2022/02/17 10:51:10;;;;;;;;;9.50;7.75;;;;;13.75;88.27;101313.38;4980481;28;45508;-85
2022/02/17 10:53:56;;;;;;;;;12.75;8.00;;;;;13.73;85.58;101315.91;4997362;28;45385;-83
2022/02/17 10:56:23;;;;;;;;;10.50;6.25;;;;;13.73;85.40;101308.09;4995630;28;45574;-85
2022/02/17 10:58:50;;;;;;;;;14.50;7.00;;;;;13.74;85.96;101299.47;5006969;28;45245;-87
2022/02/17 11:01:21;;;;;;;;;7.75;5.75;;;;;13.76;84.40;101341.19;4995229;28;45347;-85
2022/02/17 11:03:50;;;;;;;;;12.75;7.00;;;;;13.76;81.67;101346.41;4997092;28;45228;-86
2022/02/17 11:06:17;;;;;;;;;14.00;8.50;;;;;13.76;83.04;101334.25;4997352;28;45940;-89
2022/02/17 11:08:44;;;;;;;;;10.75;3.50;;;;;13.74;81.78;101330.69;4997396;28;45420;-88
2022/02/17 11:11:14;;;;;;;;;6.50;5.00;;;;;13.75;78.81;101352.44;4997200;28;45506;-86
2022/02/17 11:13:58;;;;;;;;;9.75;6.25;;;;;13.63;80.58;101326.78;4995668;28;46573;-87
2022/02/17 11:16:25;;;;;;;;;9.50;5.50;;;;;13.61;81.12;101337.13;4978524;28;46738;-86
2022/02/17 11:18:54;;;;;;;;;11.00;5.75;;;;;13.68;81.42;101329.56;4963528;28;45834;-88
2022/02/17 11:21:20;;;;;;;;;6.25;3.50;;;;;13.72;82.04;101357.50;4998567;27;45324;-85